Map

Track Data

SID SEASON NUMBER BASIN SUBBASIN NAME ISO_TIME NATURE LAT LON WMO_WIND WMO_PRES WMO_AGENCY TRACK_TYPE DIST2LAND LANDFALL IFLAG USA_AGENCY USA_ATCF_ID USA_LAT USA_LON USA_RECORD USA_STATUS USA_WIND USA_PRES USA_SSHS USA_R34_NE USA_R34_SE USA_R34_SW USA_R34_NW USA_R50_NE USA_R50_SE USA_R50_SW USA_R50_NW USA_R64_NE USA_R64_SE USA_R64_SW USA_R64_NW USA_POCI USA_ROCI USA_RMW USA_EYE TOKYO_LAT TOKYO_LON TOKYO_GRADE TOKYO_WIND TOKYO_PRES TOKYO_R50_DIR TOKYO_R50_LONG TOKYO_R50_SHORT TOKYO_R30_DIR TOKYO_R30_LONG TOKYO_R30_SHORT TOKYO_LAND CMA_LAT CMA_LON CMA_CAT CMA_WIND CMA_PRES HKO_LAT HKO_LON HKO_CAT HKO_WIND HKO_PRES NEWDELHI_LAT NEWDELHI_LON NEWDELHI_GRADE NEWDELHI_WIND NEWDELHI_PRES NEWDELHI_CI NEWDELHI_DP NEWDELHI_POCI REUNION_LAT REUNION_LON REUNION_TYPE REUNION_WIND REUNION_PRES REUNION_TNUM REUNION_CI REUNION_RMW REUNION_R34_NE REUNION_R34_SE REUNION_R34_SW REUNION_R34_NW REUNION_R50_NE REUNION_R50_SE REUNION_R50_SW REUNION_R50_NW REUNION_R64_NE REUNION_R64_SE REUNION_R64_SW REUNION_R64_NW BOM_LAT BOM_LON BOM_TYPE BOM_WIND BOM_PRES BOM_TNUM BOM_CI BOM_RMW BOM_R34_NE BOM_R34_SE BOM_R34_SW BOM_R34_NW BOM_R50_NE BOM_R50_SE BOM_R50_SW BOM_R50_NW BOM_R64_NE BOM_R64_SE BOM_R64_SW BOM_R64_NW BOM_ROCI BOM_POCI BOM_EYE BOM_POS_METHOD BOM_PRES_METHOD NADI_LAT NADI_LON NADI_CAT NADI_WIND NADI_PRES WELLINGTON_LAT WELLINGTON_LON WELLINGTON_WIND WELLINGTON_PRES DS824_LAT DS824_LON DS824_STAGE DS824_WIND DS824_PRES TD9636_LAT TD9636_LON TD9636_STAGE TD9636_WIND TD9636_PRES TD9635_LAT TD9635_LON TD9635_WIND TD9635_PRES TD9635_ROCI NEUMANN_LAT NEUMANN_LON NEUMANN_CLASS NEUMANN_WIND NEUMANN_PRES MLC_LAT MLC_LON MLC_CLASS MLC_WIND MLC_PRES USA_GUST BOM_GUST BOM_GUST_PER REUNION_GUST REUNION_GUST_PER USA_SEAHGT USA_SEARAD_NE USA_SEARAD_SE USA_SEARAD_SW USA_SEARAD_NW STORM_SPEED STORM_DIR
1912142S09070 1912 24 SI MM NOT_NAMED 1912-05-21 06:00:00 NR -9.30000 69.7000 reunion main 1767 1759 _____O________ -1 -9.30000 69.7000 99 9.90000 1 249
1912142S09070 1912 24 SI MM NOT_NAMED 1912-05-21 09:00:00 NR -9.32885 69.6346 main 1759 1751 _____P________ -1 -9.32885 69.6346 99 1 244
1912142S09070 1912 24 SI MM NOT_NAMED 1912-05-21 12:00:00 NR -9.36208 69.5648 main 1751 1743 _____P________ -1 -9.36208 69.5648 99 2 243
1912142S09070 1912 24 SI MM NOT_NAMED 1912-05-21 15:00:00 NR -9.40412 69.4860 main 1743 1727 _____P________ -1 -9.40412 69.4860 99 2 240
1912142S09070 1912 24 SI MM NOT_NAMED 1912-05-21 18:00:00 NR -9.45934 69.3937 main 1727 1720 _____P________ -1 -9.45934 69.3937 99 2 237
1912142S09070 1912 24 SI MM NOT_NAMED 1912-05-21 21:00:00 NR -9.53216 69.2835 main 1720 1704 _____P________ -1 -9.53216 69.2835 99 3 235
1912142S09070 1912 24 SI MM NOT_NAMED 1912-05-22 00:00:00 NR -9.62696 69.1509 main 1704 1680 _____P________ -1 -9.62696 69.1509 99 4 233
1912142S09070 1912 24 SI MM NOT_NAMED 1912-05-22 03:00:00 NR -9.74812 68.9912 main 1680 1649 _____P________ -1 -9.74812 68.9912 99 4 232
1912142S09070 1912 24 SI MM NOT_NAMED 1912-05-22 06:00:00 NR -9.90000 68.8000 reunion main 1649 1618 _____O________ -1 -9.90000 68.8000 99 9.90000 5 231
1912142S09070 1912 24 SI MM NOT_NAMED 1912-05-22 09:00:00 NR -10.0853 68.5750 main 1618 1579 _____P________ -1 -10.0853 68.5750 99 6 230
1912142S09070 1912 24 SI MM NOT_NAMED 1912-05-22 12:00:00 NR -10.3001 68.3234 main 1579 1547 _____P________ -1 -10.3001 68.3234 99 7 228
1912142S09070 1912 24 SI MM NOT_NAMED 1912-05-22 15:00:00 NR -10.5390 68.0550 main 1547 1500 _____P________ -1 -10.5390 68.0550 99 7 227
1912142S09070 1912 24 SI MM NOT_NAMED 1912-05-22 18:00:00 NR -10.7962 67.7793 main 1500 1454 _____P________ -1 -10.7962 67.7793 99 8 226
1912142S09070 1912 24 SI MM NOT_NAMED 1912-05-22 21:00:00 NR -11.0664 67.5061 main 1454 1422 _____P________ -1 -11.0664 67.5061 99 8 224
1912142S09070 1912 24 SI MM NOT_NAMED 1912-05-23 00:00:00 NR -11.3440 67.2453 main 1415 1375 _____P________ -1 -11.3440 67.2453 99 7 221
1912142S09070 1912 24 SI MM NOT_NAMED 1912-05-23 03:00:00 NR -11.6237 67.0066 main 1375 1336 _____P________ -1 -11.6237 67.0066 99 7 218
1912142S09070 1912 24 SI MM NOT_NAMED 1912-05-23 06:00:00 NR -11.9000 66.8000 reunion main 1336 1305 _____O________ -1 -11.9000 66.8000 99 9.90000 6 216
1912142S09070 1912 24 SI MM NOT_NAMED 1912-05-23 09:00:00 NR -12.1268 66.6368 main 1305 1282 _____P________ -1 -12.1268 66.6368 99 5 213
1912142S09070 1912 24 SI MM NOT_NAMED 1912-05-23 12:00:00 NR -12.3508 66.5005 main 1274 1251 _____P________ -1 -12.3508 66.5005 99 5 208
1912142S09070 1912 24 SI MM NOT_NAMED 1912-05-23 15:00:00 NR -12.5769 66.3902 main 1251 1227 _____P________ -1 -12.5769 66.3902 99 5 202
1912142S09070 1912 24 SI MM NOT_NAMED 1912-05-23 18:00:00 NR -12.8095 66.3051 main 1227 1204 _____P________ -1 -12.8095 66.3051 99 5 197
1912142S09070 1912 24 SI MM NOT_NAMED 1912-05-23 21:00:00 NR -13.0535 66.2444 main 1197 1182 _____P________ -1 -13.0535 66.2444 99 5 191
1912142S09070 1912 24 SI MM NOT_NAMED 1912-05-24 00:00:00 NR -13.3135 66.2072 main 1182 1160 _____P________ -1 -13.3135 66.2072 99 5 186
1912142S09070 1912 24 SI MM NOT_NAMED 1912-05-24 03:00:00 NR -13.5941 66.1927 main 1160 1139 _____P________ -1 -13.5941 66.1927 99 6 182
1912142S09070 1912 24 SI MM NOT_NAMED 1912-05-24 06:00:00 NR -13.9000 66.2000 reunion main 1139 1118 _____O________ -1 -13.9000 66.2000 99 9.90000 7 178
1912142S09070 1912 24 SI MM NOT_NAMED 1912-05-24 09:00:00 NR -14.2651 66.1999 main 1111 1091 _____P________ -1 -14.2651 66.1999 99 8 0
1912142S09070 1912 24 SI MM NOT_NAMED 1912-05-24 12:00:00 NR -14.6581 66.2229 main 1085 1072 _____P________ -1 -14.6581 66.2229 99 8 175
1912142S09070 1912 24 SI MM NOT_NAMED 1912-05-24 15:00:00 NR -15.0701 66.2681 main 1069 1045 _____P________ -1 -15.0701 66.2681 99 8 173
1912142S09070 1912 24 SI MM NOT_NAMED 1912-05-24 18:00:00 NR -15.4921 66.3348 main 1045 1032 _____P________ -1 -15.4921 66.3348 99 9 170
1912142S09070 1912 24 SI MM NOT_NAMED 1912-05-24 21:00:00 NR -15.9151 66.4222 main 1032 1021 _____P________ -1 -15.9151 66.4222 99 9 167
1912142S09070 1912 24 SI MM NOT_NAMED 1912-05-25 00:00:00 NR -16.3300 66.5294 main 1021 1011 _____P________ -1 -16.3300 66.5294 99 8 165
1912142S09070 1912 24 SI MM NOT_NAMED 1912-05-25 03:00:00 NR -16.7280 66.6556 main 1021 1007 _____P________ -1 -16.7280 66.6556 99 8 161
1912142S09070 1912 24 SI MM NOT_NAMED 1912-05-25 06:00:00 NR -17.1000 66.8000 reunion main 1013 1008 _____O________ -1 -17.1000 66.8000 99 9.90000 7 159
1912142S09070 1912 24 SI MM NOT_NAMED 1912-05-25 09:00:00 NR -17.4209 66.9309 main 1010 1007 _____P________ -1 -17.4209 66.9309 99 7 157
1912142S09070 1912 24 SI MM NOT_NAMED 1912-05-25 12:00:00 NR -17.7196 67.0802 main 1019 1016 _____P________ -1 -17.7196 67.0802 99 7 153
1912142S09070 1912 24 SI MM NOT_NAMED 1912-05-25 15:00:00 NR -17.9987 67.2484 main 1020 1020 _____P________ -1 -17.9987 67.2484 99 6 148
1912142S09070 1912 24 SI MM NOT_NAMED 1912-05-25 18:00:00 NR -18.2612 67.4364 main 1031 1031 _____P________ -1 -18.2612 67.4364 99 6 144
1912142S09070 1912 24 SI MM NOT_NAMED 1912-05-25 21:00:00 NR -18.5098 67.6448 main 1047 1047 _____P________ -1 -18.5098 67.6448 99 6 140
1912142S09070 1912 24 SI MM NOT_NAMED 1912-05-26 00:00:00 NR -18.7473 67.8744 main 1073 1071 _____P________ -1 -18.7473 67.8744 99 7 136
1912142S09070 1912 24 SI MM NOT_NAMED 1912-05-26 03:00:00 NR -18.9765 68.1258 main 1088 1088 _____P________ -1 -18.9765 68.1258 99 7 132
1912142S09070 1912 24 SI MM NOT_NAMED 1912-05-26 06:00:00 NR -19.2000 68.4000 reunion main 1115 1115 _____O________ -1 -19.2000 68.4000 99 9.90000 7 132
1912142S09070 1912 24 SI MM NOT_NAMED 1912-05-26 09:00:00 NR -19.4323 68.6645 main 1144 1142 _____P________ -1 -19.4323 68.6645 99 7 131
1912142S09070 1912 24 SI MM NOT_NAMED 1912-05-26 12:00:00 NR -19.6563 68.9506 main 1171 1171 _____P________ -1 -19.6563 68.9506 99 7 128
1912142S09070 1912 24 SI MM NOT_NAMED 1912-05-26 15:00:00 NR -19.8733 69.2596 main 1201 1201 _____P________ -1 -19.8733 69.2596 99 7 125
1912142S09070 1912 24 SI MM NOT_NAMED 1912-05-26 18:00:00 NR -20.0848 69.5930 main 1231 1231 _____P________ -1 -20.0848 69.5930 99 8 123
1912142S09070 1912 24 SI MM NOT_NAMED 1912-05-26 21:00:00 NR -20.2919 69.9522 main 1271 1271 _____P________ -1 -20.2919 69.9522 99 8 120
1912142S09070 1912 24 SI MM NOT_NAMED 1912-05-27 00:00:00 NR -20.4959 70.3388 main 1302 1302 _____P________ -1 -20.4959 70.3388 99 9 118
1912142S09070 1912 24 SI MM NOT_NAMED 1912-05-27 03:00:00 NR -20.6982 70.7542 main 1354 1354 _____P________ -1 -20.6982 70.7542 99 9 117
1912142S09070 1912 24 SI MM NOT_NAMED 1912-05-27 06:00:00 NR -20.9000 71.2000 reunion main 1395 1395 _____O________ -1 -20.9000 71.2000 99 9.90000 10 115
1912142S09070 1912 24 SI MM NOT_NAMED 1912-05-27 09:00:00 NR -21.1326 71.7402 main 1447 1447 _____P________ -1 -21.1326 71.7402 99 11 114
1912142S09070 1912 24 SI MM NOT_NAMED 1912-05-27 12:00:00 NR -21.3659 72.3227 main 1510 1510 _____P________ -1 -21.3659 72.3227 99 12 113
1912142S09070 1912 24 SI MM NOT_NAMED 1912-05-27 15:00:00 NR -21.5947 72.9279 main 1573 1573 _____P________ -1 -21.5947 72.9279 99 12 112
1912142S09070 1912 24 SI MM NOT_NAMED 1912-05-27 18:00:00 NR -21.8138 73.5362 main 1636 1636 _____P________ -1 -21.8138 73.5362 99 12 111
1912142S09070 1912 24 SI MM NOT_NAMED 1912-05-27 21:00:00 NR -22.0183 74.1278 main 1699 1699 _____P________ -1 -22.0183 74.1278 99 11 110
1912142S09070 1912 24 SI MM NOT_NAMED 1912-05-28 00:00:00 NR -22.2036 74.6825 main 1762 1762 _____P________ -1 -22.2036 74.6825 99 10 110
1912142S09070 1912 24 SI MM NOT_NAMED 1912-05-28 03:00:00 NR -22.3656 75.1800 main 1815 1815 _____P________ -1 -22.3656 75.1800 99 9 109
1912142S09070 1912 24 SI MM NOT_NAMED 1912-05-28 06:00:00 NR -22.5000 75.6000 reunion main 1857 1857 _____O________ -1 -22.5000 75.6000 99 9.90000 7 109
1912142S09070 1912 24 SI MM NOT_NAMED 1912-05-28 09:00:00 NR -22.6043 75.9276 main 1889 1889 _____P________ -1 -22.6043 75.9276 99 6 109
1912142S09070 1912 24 SI MM NOT_NAMED 1912-05-28 12:00:00 NR -22.6816 76.1693 main 1920 1920 _____P________ -1 -22.6816 76.1693 99 4 109
1912142S09070 1912 24 SI MM NOT_NAMED 1912-05-28 15:00:00 NR -22.7359 76.3374 main 1930 1930 _____P________ -1 -22.7359 76.3374 99 3 110
1912142S09070 1912 24 SI MM NOT_NAMED 1912-05-28 18:00:00 NR -22.7713 76.4438 main 1942 1942 _____P________ -1 -22.7713 76.4438 99 2 110
1912142S09070 1912 24 SI MM NOT_NAMED 1912-05-28 21:00:00 NR -22.7916 76.5010 main 1952 1952 _____P________ -1 -22.7916 76.5010 99 1 112
1912142S09070 1912 24 SI MM NOT_NAMED 1912-05-29 00:00:00 NR -22.8006 76.5212 main 1952 1952 _____P________ -1 -22.8006 76.5212 99 0 0
1912142S09070 1912 24 SI MM NOT_NAMED 1912-05-29 03:00:00 NR -22.8022 76.5168 main 1952 1952 _____P________ -1 -22.8022 76.5168 99 0 0
1912142S09070 1912 24 SI MM NOT_NAMED 1912-05-29 06:00:00 NR -22.8000 76.5000 reunion main 1952 _____O________ -1 -22.8000 76.5000 99 9.90000 0 0

About IBTrACS Database

This database is a web-friendly format of International Best Track Archive for Climate Stewardship (IBTrACS), a global best track data archive curated by NOAA dating back to 1842.

Updated: 2021-10-25